Airfield :
LOGIN :

Register | Disclaimer

   EN    FR    IT 

 










Legend :    VFR   Marginal VFR   IFR   Intensive IFR   Very Intensive IFR
Visi :
Ceiling :
>= 8 km
>= 3000ft
5 to 8 km
1000 to 3000 ft
1500m to 5 km
500 to 1000 ft
800 to 1500m
200 to 500 ft
< 800m
< 200 ft
Symbols :   Thunderstorms  Fog  Heavy snow  Heavy precipitations  Wind > 20 kt
SIGMETs :     Misc.  Thunderstorms  Icing  Turbulence  Mountain Waves  Volcanic Ashes






- Airport Elevation : 65 ft
- IATA code : PIK


EGPK - Glasgow Prestwick

CURRENT METAR :
  • 100950Z 17024G36KT 9000 RA SCT015 BKN034 12/10 Q0991

EXPIRED METARs :
  • 100920Z 17026G38KT 9000 RA SCT015 BKN034 11/09 Q0992
  • 100850Z 16027KT 7000 RA FEW010 SCT016 BKN038 11/09 Q0993
  • 100820Z 16024G34KT 9999 RA SCT016 BKN038 11/09 Q0994
  • 100750Z 17023KT 9999 -RA SCT016 BKN038 10/09 Q0996

TAF TAF EGPK
Valid from the 10 at 06:00 until the 11 at 06:00 UTC


100459Z 1006/1106 17022G32KT 9999 FEW035
TEMPO 1006/1015 20027G44KT 6000 RA
PROB30
TEMPO 1006/1015 3000 RADZ +RA BKN014
BECMG 1013/1015 25018KT
PROB40
TEMPO 1015/1106 25025G35KT 5000 SHRA BKN014



MET'MAP, your aeronautical weather chart ! - Copyright ORBIFLY December 2007 - Disclaimer

ORBIFLY MET'MAP TEAM :

Programming & Development : Alexandra Zaïnal
Concept & original design : Baudouin d'Aumeries
Assistance for programming : Marc-Olivier Méhu
Technical & hardware support : Manuel Goepfert

Contact : metmap@orbifly.com




SOURCES & CREDITS :

   NOAA